Create Custom Reports and Graphics: Custom Report

North Region Latest Observations

Map

10 Minute Data

Winnemucca/Elko Latest Observations

Map

10 Minute Data

South Region Latest Observations

Map

10 Minute Data

Latest Observation

114 Stations

10 Minute Data
as of 9/5/26 2:16 PM PDT
Station Date Time Temp (°F) RH (%) Dew Pt (°F) Wind Spd (mph) Wind Dir (°) Wind Gust (mph) Wind Gst Dir (°) Latest Rain (In) Soil Moist (%) Soil Temp (°F) Daily Rain (In) Daily Min Temp (°F) Daily Max Temp (°F) Daily Max Wind (mph)
Hobart Mills 9/5/26 1410 61.2   4.6 49   15 42.0   2.4 5.1   1.6 WSW | 237 14.4   4.0 SW | 227 0.00 7.4   0.1 59.0   2.4 0.00 39.0   7.8 62.5   5.1 15.5   1.2
Prosser Dam 9/5/26 1410 61.5   5.1 49   10 42.0   0.3 8.1   0.0 WSW | 250 14.5   2.5 W | 263 0.00 5.1   0.1 57.9   2.1 0.00 35.3   12.8 63.2   6.4 20.6   2.9
West Incline Village 9/5/26 1410 56.4   8.0 53   24 39.6   2.1 5.1   2.5 S | 185 13.2   1.9 S | 190 0.00 11.6   0.1 55.2   1.0 0.00 43.4   0.4 57.6   8.5 15.5   6.1
Incline Village (Fairview Blvd) 9/5/26 1410 58.4   6.1 50   18 39.8   2.2 4.0   2.2 SW | 216 10.4   6.2 W | 279 0.00 7.6   0.1 67.2   1.3 0.00 46.3   0.7 59.7   7.1 13.5   5.0
Incline Village (Diamond Peak) 9/5/26 1410 54.8   6.2 55   21 39.2   2.5 4.8   1.8 WNW | 287 13.9   6.8 WSW | 254 0.00 2.4   0.1 55.3   1.7 0.00 44.2   0.2 58.2   9.1 13.9   1.2
Incline Village (Mill Creek) 9/5/26 1410 60.7   6.8 49   14 41.4   0.3 3.3   0.6 W | 260 11.2   2.7 WSW | 255 0.00 2.9   0.1 60.1   0.9 0.00 45.2   3.5 61.6   7.4 12.5   6.3
Incline Village (Lakeshore Blvd) 9/5/26 1410 59.1   4.6 57   15 43.9   1.7 3.6   1.8 SW | 231 7.9   1.0 WSW | 247 0.00 20.5   2.7 61.8   1.8 0.00 44.0   7.0 60.0   4.3 10.4   6.6
Glenbrook 9/5/26 1410 61.2   5.8 48   15 41.6   1.7 9.3   0.7 WSW | 245 15.0   0.5 W | 260 0.00 43.5   0.1 58.1   0.1 0.00 40.1   11.6 62.0   5.7 17.5   8.8
Zephyr Cove 9/5/26 1410 64.4   8.8 37   21 37.4   3.5 1.7   0.0 SW | 236 7.0   1.5 SSW | 198 0.00 2.9   0.1 60.6   0.3 0.00 44.6   5.3 64.7   7.9 8.4   4.1
Kingsbury Grade 9/5/26 1410 61.7   8.4 39   24 36.6   4.4 3.4   1.0 WSW | 240 12.2   4.3 WSW | 253 0.00 2.2   0.1 61.1   2.1 0.00 39.2   8.3 63.3   9.6 16.8   1.6
South Daggett Pass (Ridge) 9/5/26 1410 57.4   8.8 44   28 35.8   4.3 2.7   0.2 WNW | 284 16.5   0.9 W | 269 0.00 2.2   0.0 60.3   1.1 0.00 41.9   2.1 58.9   10.2 16.5   1.9
Palomino Valley 9/5/26 1410 71.2   2.5 29   4 37.5   1.2 2.7   11.6 S | 177 9.4   14.0 SSE | 166 0.00 6.5   0.1 71.4   1.8 0.00 38.8   15.4 72.2   2.4 21.7   4.3
East Cold Springs 9/5/26 1410 65.4   3.8 37   9 38.7   2.1 10.6   3.8 WSW | 242 15.0   9.2 W | 260 0.00 1.5   0.0 67.9   1.4 0.00 45.4   5.2 68.4   5.7 20.2   4.0
Peavine 9/5/26 1410 64.6   6.2 33   16 34.6   4.5 15.6   4.5 WSW | 253 24.6   4.0 W | 266 0.00 4.2   0.0 64.3   0.1 0.00 44.9   5.2 65.6   6.7 28.9   3.8
West Verdi Peak 9/5/26 1510 62.0   7.4 43   23 39.4   4.3 4.9   1.0 SW | 234 15.4   0.4 W | 280 0.00 6.4   0.0 63.7   1.8 0.00 43.0   3.5 63.3   7.7 18.0   1.9
West Verdi 9/5/26 1410 66.9   5.1 37   16 39.8   4.6 5.1   0.8 SSW | 213 14.9   1.1 SW | 229 0.00 6.0   0.1 72.9   2.7 0.00 44.4   7.8 68.1   4.9 21.5   6.3
South Verdi 9/5/26 1410 64.9   6.3 38   15 38.6   2.8 14.4   3.4 SW | 222 20.6   8.0 SW | 224 0.00 10.0   0.1 66.5   0.5 0.00 46.8   4.7 65.6   5.9 26.0   8.9
Northwest Reno 9/5/26 1410 68.3   7.1 32   16 36.9   4.0 23.9   0.3 WSW | 247 34.6   3.1 WSW | 238 0.00 24.0   0.4 70.0   2.2 0.00 48.4   5.9 69.3   6.4 34.6   6.7
North Lawton 8/28/26 1620 63.8   17.1 74   52 55.4   16.5 1.5   11.6 ESE | 121 5.1   19.0 SE | 124 0.00 - 78.2   0.0 0.05 59.2   7.5 71.9   13.3 20.4   4.6
West Reno (Mogul) 9/5/26 1410 68.7   5.4 31   15 36.5   5.2 10.9   4.5 SW | 235 19.8   0.1 SSW | 193 0.00 19.4   0.1 75.9   1.0 0.00 47.3   5.9 69.5   4.8 21.9   8.9
Caughlin (Hunter Lake Trail) 9/5/26 1410 68.6   7.5 29   17 35.3   5.2 7.4   1.0 SW | 229 15.6   1.0 W | 280 0.00 16.0   0.2 68.9   1.9 0.00 46.7   5.9 69.5   7.8 21.6   1.0
ArrowCreek 9/5/26 1410 69.6   6.9 28   16 35.1   5.5 13.2   0.3 SW | 214 24.6   4.6 SW | 230 0.00 - 32.0   0.0 0.00 47.4   8.7 70.4   7.1 27.0   3.7
Tracy 9/5/26 1410 72.1   1.9 29   6 38.5   3.1 7.7   12.9 WSW | 247 16.5   18.8 WSW | 242 0.00 15.4   0.2 73.9   1.6 0.00 48.7   13.5 72.9   1.9 16.5   18.8
Virginia Highlands 9/5/26 1410 63.5   3.7 37   8 37.1   1.7 6.5   5.8 WNW | 300 13.7   10.9 WNW | 283 0.00 7.8   0.0 71.6   0.6 0.00 47.7   5.8 64.7   4.5 18.1   7.5
Virginia City 9/5/26 1410 66.0   5.3 30   12 33.8   3.8 8.9   4.0 S | 190 17.3   11.2 S | 180 0.00 4.7   0.0 69.2   1.0 0.00 46.0   6.9 67.0   5.3 21.5   11.2
Six Mile Canyon 9/5/26 1410 72.2   2.3 29   2 38.5   0.5 9.3   8.7 ESE | 113 21.6   5.8 ESE | 113 0.00 11.9   0.1 72.4   1.4 0.00 49.6   12.2 72.9   1.6 21.6   7.6
Mt Rose Highway 9/5/26 1410 59.8   7.8 42   22 36.4   3.7 7.4   3.7 SW | 215 15.0   1.0 SSW | 205 0.00 7.4   0.0 58.7   1.1 0.00 45.1   0.2 60.7   8.2 23.4   8.0
Pleasant Valley 9/5/26 1410 70.6   5.4 30   12 38.1   3.8 14.2   2.5 SW | 235 23.5   3.5 WSW | 240 0.00 2.3   0.0 71.6   2.4 0.00 41.9   14.7 71.7   5.8 26.7   3.0
New Washoe City 9/5/26 1410 68.8   5.5 33   10 38.9   1.7 13.8   3.1 WSW | 240 24.6   2.1 SW | 226 0.00 3.4   0.0 69.9   1.1 0.00 45.2   12.4 69.9   6.0 26.6   4.2
Franktown Creek 9/5/26 1410 68.6   4.9 34   12 39.2   3.6 4.8   3.5 W | 280 15.5   7.1 NW | 307 0.00 7.0   0.0 68.6   1.7 0.00 45.0   10.1 69.2   4.8 17.5   8.0
Musgrove Creek 9/5/26 1410 66.4   5.3 35   13 38.1   3.1 3.4   0.5 SSW | 204 14.2   0.9 SSW | 205 0.00 10.3   0.0 59.6   0.2 0.00 49.2   2.7 67.1   4.3 16.9   1.6
East Carson 11/23/24 0110 28.6   28.4 - - 4.7   11.0 SW | 220 14.7   10.1 SW | 219 0.02 - 50.9   0.1 0.02 -25.9   79.1 42.9   14.6 16.0   10.7
Kings Canyon 9/5/26 1410 69.1   7.4 32   14 38.3   2.6 8.4   2.3 SW | 220 18.6   4.0 SW | 214 0.00 4.1   0.0 65.3   1.7 0.00 43.6   13.5 70.0   7.6 20.5   5.5
Carson City (Voltaire Canyon) 9/5/26 1410 69.8   5.6 32   11 39.0   2.3 13.3   6.3 W | 265 22.0   7.7 W | 266 0.00 2.8   0.0 75.7   1.0 0.00 51.0   7.8 71.5   6.4 24.6   12.6
Jacks Valley 9/5/26 1410 69.8   7.1 32   13 38.6   2.5 14.1   1.3 W | 265 25.8   1.2 W | 269 0.00 4.5   0.0 73.9   1.2 0.00 47.3   10.4 71.0   7.6 25.8   4.0
Genoa 9/5/26 1410 73.6   10.4 30   19 40.4   3.2 2.0   1.7 WSW | 253 10.4   0.2 W | 276 0.00 2.4   0.0 75.2   6.1 0.00 45.5   14.2 73.9   10.2 12.8   1.0
South Genoa (Walleys Hot Springs) 9/5/26 1410 73.9   9.3 25   20 35.6   7.3 8.2   0.3 SE | 142 17.0   2.0 SE | 135 0.00 4.4   0.3 72.0   1.4 0.00 42.8   17.8 75.0   9.8 24.3   4.0
SW Gardnerville (HWY 88) 9/5/26 1410 71.5   6.3 28   13 36.7   4.3 16.7   0.2 SSW | 208 27.4   0.7 SW | 225 0.00 2.7   0.1 65.8   1.9 0.00 44.1   15.5 71.9   6.1 30.9   1.0
Sheridan 9/5/26 1410 72.9   6.9 24   15 34.4   6.5 13.5   8.6 SSE | 163 25.2   10.3 SW | 215 0.00 1.0   0.1 68.6   1.8 0.00 46.7   12.5 73.8   6.8 25.5   2.9
Ruhenstroth 9/5/26 1410 71.6   3.9 26   9 35.3   3.8 14.6   1.9 SW | 232 28.6   0.2 SW | 235 0.00 6.8   0.0 72.4   0.1 0.00 50.3   8.5 72.6   4.4 32.3   0.6
Double Spring 9/5/26 1410 69.1   3.5 26   8 33.2   3.4 8.4   6.7 WSW | 254 16.9   10.2 SW | 230 0.00 24.7   0.2 71.5   1.1 0.00 37.7   17.0 70.0   3.8 22.5   5.7
North Topaz Lake 9/5/26 1410 71.2   1.2 27   3 36.0   1.9 4.3   6.9 E | 92 11.2   9.4 SE | 142 0.00 8.0   0.1 85.8   1.6 0.00 50.2   8.4 72.1   1.3 11.9   19.0
Wild Oat Mountain 9/5/26 1410 69.1   1.9 28   3 34.8   1.1 4.6   14.9 ESE | 117 10.9   20.0 SSE | 160 0.00 5.7   0.0 70.8   1.2 0.00 49.2   7.3 71.5   3.2 14.2   21.4
Smith Valley 9/5/26 1410 72.0   3.3 30   4 39.2   0.9 4.1   6.3 ESE | 106 10.7   8.4 E | 95 0.00 2.7   0.0 73.3   2.6 0.00 44.9   17.7 72.7   3.8 10.7   12.6
Pine Grove Mountain 9/5/26 1410 58.8   1.1 39   3 34.0   1.1 4.7   4.8 NW | 318 11.3   8.3 NNW | 333 0.00 6.4   0.2 62.6   1.2 0.00 40.9   4.7 59.9   1.1 15.0   7.2
Paradise Hill 9/5/26 1410 70.3   4.5 32   14 38.7   5.2 4.2   13.3 W | 263 11.0   16.8 WSW | 246 0.00 9.7   0.2 73.2   0.1 0.00 48.0   5.1 72.1   5.5 20.1   7.7
Winnemucca 9/5/26 1410 72.7   6.6 30   17 39.2   6.1 6.0   3.5 WSW | 242 15.6   0.5 SW | 221 0.00 5.6   0.0 71.4   0.6 0.00 50.3   1.8 73.5   6.5 15.6   1.9
NE Elko 9/5/26 1410 78.5   2.5 19   4 33.3   2.7 8.6   0.0 SSE | 168 20.9   5.6 S | 174 0.00 5.6   0.0 70.4   0.7 0.00 40.4   4.5 79.5   2.1 20.9   3.0
North Elko 9/5/26 1410 73.8   1.0 25   2 35.4   0.7 5.6   1.4 S | 177 14.3   6.0 S | 175 0.00 24.4   0.1 70.4   0.4 0.00 48.9   4.8 74.6   0.6 22.5   1.7
South Elko 9/5/26 1410 74.7   3.5 22   5 33.6   1.7 8.4   1.3 S | 180 15.2   0.6 SSE | 154 0.00 13.5   0.1 67.4   1.0 0.00 48.0   5.1 92.4   17.6 30.2   12.5
Lamoille 9/5/26 1410 73.5   0.7 27   1 37.2   2.0 7.2   2.6 N | 2 15.3   4.1 NNW | 335 0.00 6.0   0.1 66.2   0.3 0.00 44.1   2.5 74.1   0.5 15.3   5.6
Reid Gardner Sub 9/5/26 1410 97.3   1.3 13   3 37.7   4.3 15.0   3.4 S | 189 28.8   6.6 SSE | 164 0.00 25.0   0.0 86.1   0.1 0.00 60.7   0.9 98.2   1.7 28.8   0.9
Corn Creek 9/5/26 1410 91.9   2.8 11   5 30.3   7.1 16.8   3.9 ESE | 114 24.8   14.4 ESE | 121 0.00 3.0   0.0 87.8   0.7 0.00 69.3   1.0 93.2   3.0 33.9   6.1
Lucky Strike 9/5/26 1400 79.8   2.8 11   8 19.5   11.5 16.1   6.2 S | 170 25.6   12.0 S | 174 0.00 3.0   0.1 82.0   0.7 0.00 61.7   1.2 81.7   3.9 32.0   6.8
Lower Angel Peak 9/5/26 1410 76.1   2.1 11   11 18.1   14.9 9.7   0.1 SE | 139 21.4   1.0 ESE | 120 0.00 3.1   0.0 71.4   0.2 0.00 53.9   2.0 77.3   2.5 23.5   3.6
Angel Peak 9/5/26 1410 62.8   2.5 13   18 11.2   18.1 18.2   3.9 S | 176 33.9   0.6 SSE | 168 0.00 2.5   0.1 67.6   0.5 0.00 52.7   1.8 66.4   1.5 37.1   4.7
Upper Kyle Canyon 9/5/26 1410 68.1   3.9 14   14 17.8   13.2 6.0   2.0 E | 79 17.3   6.3 ESE | 117 0.00 7.7   0.0 73.4   0.2 0.00 57.6   1.1 70.1   2.4 34.2   6.5
Mt Charleston 9/5/26 1410 66.4   1.6 16   12 18.6   12.3 4.4   0.4 ENE | 59 18.0   0.2 S | 178 0.00 13.1   0.0 67.1   0.2 0.00 57.4   1.2 69.1   1.6 28.6   0.1
Mid Kyle Canyon 9/5/26 1410 75.2   2.4 12   10 20.0   12.4 9.2   2.3 SW | 217 17.5   5.2 SW | 234 0.00 5.7   0.1 72.4   0.6 0.00 59.2   4.8 77.4   2.2 28.6   6.5
Blue Diamond 9/5/26 1410 88.6   1.5 10   6 26.0   10.0 10.0   1.1 W | 268 23.1   4.8 WNW | 287 0.00 1.2   0.0 86.3   0.3 0.00 68.2   2.5 89.4   1.4 28.0   0.1
Artesian Sub 9/5/26 1410 99.2   2.1 12   1 36.7   0.6 7.3   0.2 S | 183 14.3   5.6 SSE | 167 0.00 11.7   0.0 92.1   0.2 0.00 77.5   0.6 100.3   2.0 20.9   1.0
North Henderson 9/5/26 1410 99.4   2.8 12   1 37.6   0.9 14.4   0.4 SW | 223 24.0   0.7 SW | 217 0.00 10.5   0.0 95.1   0.3 0.00 77.6   1.5 100.2   2.8 24.0   9.4
Sandy Valley 9/5/26 1410 89.0   0.0 15   0 35.8   0.0 8.7   3.0 W | 272 15.0   3.5 W | 266 0.00 7.4   0.2 86.7   0.1 0.00 68.2   0.2 90.7   0.9 19.0   1.1
Searchlight 9/5/26 1410 89.6   3.2 22   5 45.3   9.3 14.8   2.8 S | 185 22.5   3.7 S | 184 0.00 5.6   0.0 83.6   0.2 0.00 65.6   0.8 90.4   3.2 29.9   1.1
Laughlin 9/5/26 1410 103.1   2.8 18   0 51.5   2.9 14.8   0.3 SSE | 162 24.8   0.6 SSE | 158 0.00 4.3   0.1 96.6   0.7 0.00 79.4   0.6 103.8   2.8 24.8   8.1
31Mission Hills 9/5/26 1410 95.6   3.3 13   0 36.3   3.5 11.9   4.8 SW | 221 29.2   1.5 SW | 231 0.00 6.4   0.1 91.3   1.4 0.00 74.1   0.2 96.5   3.5 29.2   2.4
32 Enterprise Sierra Cliffs 9/5/26 1410 90.5   1.1 10   3 27.6   4.5 18.1   10.1 SW | 222 29.1   11.5 SW | 216 0.00 1.4   0.0 89.7   0.3 0.00 68.2   1.4 91.6   1.4 29.2   6.1
29 Calico Basin 9/5/26 1410 86.5   0.8 7   7 13.6   16.2 21.9   8.2 SW | 216 32.8   9.3 SW | 221 0.00 2.3   0.1 82.1   0.6 0.00 68.9   0.6 87.5   0.7 32.8   6.3
28 Indian Springs 9/5/26 1410 91.0   1.1 7   6 19.2   13.5 20.1   13.8 WSW | 245 30.7   15.4 WSW | 240 0.00 4.3   0.0 82.6   1.4 0.00 63.4   1.5 92.1   1.1 33.4   7.9
30 Jean 9/5/26 1410 91.5   1.9 12   0 31.8   2.1 18.2   1.8 WSW | 254 29.2   5.0 WSW | 257 0.00 4.9   0.1 87.3   0.3 0.00 65.9   1.4 92.1   1.3 29.2   2.2
VC Highlands NW 9/5/26 1410 65.1   8.4 32   15 34.2   2.3 4.9   2.1 WSW | 255 15.3   2.2 WNW | 298 0.00 1.5   0.1 64.5   0.3 0.00 44.4   6.8 66.4   9.3 15.3   8.4
Glenbrook-Spooner Summit 9/5/26 0750 45.8   2.2 67   3 35.5   3.1 1.5   0.9 WSW | 248 5.1   3.2 WSW | 247 0.00 7.7   0.0 61.2   2.5 0.00 37.2   9.5 46.5   2.4 10.9   12.9
Hobo Hot Springs 9/5/26 1410 72.7   7.2 26   13 36.1   3.9 7.3   2.1 SW | 231 15.4   5.6 SW | 222 0.00 1.0   0.1 67.9   1.3 0.00 41.5   18.3 73.8   7.0 21.5   3.4
Jack Valley Ranch 2 9/5/26 1410 70.5   6.9 29   14 36.5   4.2 9.3   0.6 WSW | 254 18.5   0.5 WNW | 292 0.00 2.1   0.0 70.3   1.5 0.00 48.4   8.7 71.6   6.9 20.2   6.1
Genoa North 2 9/5/26 1410 71.9   8.7 27   16 36.6   4.2 4.5   3.4 SW | 218 14.2   5.2 SSW | 197 0.00 0.8   0.0 69.9   1.2 0.00 44.7   13.6 72.7   8.9 18.5   5.2
Mottsville 2 9/5/26 1410 73.1   8.3 23   18 32.6   7.9 4.8   2.0 SE | 128 12.9   0.6 ESE | 121 0.00 1.3   0.0 67.6   2.3 0.00 43.6   15.5 73.9   8.7 20.9   7.6
Kingsbury Village 3 9/5/26 1410 58.7   11.1 38   31 33.4   4.6 3.2   0.4 W | 268 14.7   5.1 N | 349 0.00 3.2   0.1 55.8   2.6 0.00 38.5   4.7 59.7   11.7 14.7   1.2
Kingsbury-Benjamin Dr 2 9/5/26 1410 59.4   9.4 38   27 34.0   4.9 2.8   0.4 W | 260 11.0   1.2 SSW | 207 0.00 2.8   0.1 60.8   2.5 0.00 41.0   3.9 60.9   10.7 15.6   0.1
Smith Valley-Wellington 9/5/26 1410 72.5   1.7 27   2 36.4   0.7 5.2   7.8 N | 8 10.6   11.9 NNW | 348 0.00 3.4   0.1 76.2   1.5 0.00 43.6   17.1 73.2   2.0 15.6   8.1
Sheridan South 2 9/5/26 1410 71.4   6.6 26   14 34.6   5.0 8.1   0.2 S | 173 17.3   5.0 SE | 145 0.00 0.4   0.0 68.2   1.9 0.00 47.3   11.4 72.1   6.8 30.9   3.7
Silver Springs 9/5/26 1410 72.4   0.8 28   0 37.5   0.3 3.9   17.3 SE | 131 8.2   27.3 SSE | 165 0.00 4.8   0.1 74.5   1.0 0.00 47.8   15.0 73.2   0.8 16.2   21.9
Fernley 9/5/26 1410 74.1   1.3 25   3 36.2   1.3 8.9   9.2 SSW | 202 22.5   6.0 SSE | 160 0.00 3.1   0.0 76.6   1.7 0.00 47.8   11.5 75.2   1.8 22.5   9.6
Spanish Springs 9/5/26 1410 71.1   2.9 28   6 36.6   2.3 2.6   8.2 NW | 312 8.9   14.7 WNW | 301 0.00 9.8   0.1 72.3   0.6 0.00 42.3   15.2 71.8   2.6 18.0   7.0
Suttcliffe South 2 9/5/26 1410 67.1   5.3 38   27 40.7   9.3 9.8   5.0 NE | 39 16.3   6.8 NE | 44 0.00 4.0   0.1 71.8   1.8 0.00 39.4   14.0 68.2   5.6 16.3   8.4
Lemmon Valley North 9/5/26 1410 66.9   3.1 32   9 35.9   3.3 11.5   3.8 SSW | 212 20.0   7.1 SW | 218 0.00 2.0   0.0 67.7   1.1 0.00 34.8   17.4 68.0   3.1 20.0   8.8
Lemmon Valley NW 3 9/5/26 1410 67.9   3.7 31   9 36.1   3.3 9.6   1.8 W | 270 18.0   0.2 W | 273 0.00 1.2   0.0 72.7   0.4 0.00 39.6   14.1 68.7   2.9 18.0   13.3
VC Highlands North 9/5/26 1410 64.4   4.2 32   9 34.2   2.4 5.1   7.4 WSW | 254 17.3   9.3 SSW | 209 0.00 4.7   0.0 74.9   1.2 0.00 38.0   15.2 65.4   4.6 18.3   8.8
Upper Voltaire Cyn 9/5/26 1410 66.1   7.4 32   15 35.3   3.0 10.7   5.2 WSW | 238 26.0   0.7 WSW | 245 0.00 1.1   0.1 64.8   2.1 0.00 48.9   5.8 67.9   9.0 26.0   5.3
Yerington NW 9/5/26 1410 71.6   1.9 31   1 39.0   1.2 4.0   8.1 ENE | 71 10.7   8.2 E | 80 0.00 7.2   0.0 72.6   0.2 0.00 45.2   14.9 71.9   2.2 14.8   5.8
Spanish Springs SW 9/5/26 1410 70.0   4.6 28   8 35.8   2.6 3.4   11.8 NNW | 335 9.6   15.8 WNW | 301 0.00 1.4   0.0 72.6   0.9 0.00 44.6   12.7 70.4   2.1 17.6   9.3
Cosgrave 2 8/27/26 0750 62.9   4.1 34   3 33.8   1.4 2.6   0.5 WSW | 246 4.1   1.0 W | 267 0.00 3.8   0.1 77.4   2.9 0.00 62.7   3.3 77.4   3.5 11.2   3.9
Winnemucca-Grass Valley 2 9/5/26 1410 71.8   4.1 30   12 38.6   5.4 6.3   5.2 NNE | 29 10.7   9.3 NE | 39 0.00 7.7   0.0 68.6   1.3 0.00 40.3   8.2 72.4   3.8 11.9   8.1
Winnemucca-Dutch Flat Rd 9/5/26 1410 70.4   5.3 29   14 36.4   5.3 4.2   4.0 SW | 218 11.4   3.4 WNW | 293 0.00 6.1   0.0 71.5   1.1 0.00 49.7   1.1 71.3   3.4 17.9   0.6
Paradise Valley 2 9/5/26 1410 70.4   2.6 28   7 35.8   3.1 9.8   0.0 SSE | 166 15.0   0.4 SSE | 161 0.00 12.2   0.0 70.3   0.4 0.00 42.9   5.5 71.0   1.9 20.9   0.4
Golconda 2 9/5/26 1410 70.7   3.7 29   11 37.1   5.2 6.2   4.2 N | 9 16.0   0.5 NNW | 344 0.00 1.9   0.0 76.8   1.0 0.00 50.1   0.7 71.2   3.4 19.8   1.9
Battle Mountain - South 9/5/26 1410 75.6   0.5 25   2 37.0   1.2 5.5   4.7 WSW | 254 10.3   12.4 W | 261 0.00 9.3   0.0 72.3   0.6 0.00 44.6   6.3 76.3   0.9 12.5   10.2
Geiger Summit 9/5/26 1410 60.8   4.4 100   0 60.8   4.4 5.4   8.2 W | 263 11.6   9.6 W | 268 0.00 6.1   0.1 61.3   0.9 0.00 42.0   8.2 61.5   4.7 22.4   6.4
Combs Canyon 3 9/5/26 1410 71.5   5.5 27   10 35.7   3.6 11.0   0.4 WSW | 247 23.7   5.2 W | 261 0.00 1.0   0.0 72.5   1.1 0.00 47.5   11.1 73.0   5.2 28.9   2.0
Clear Creek 9/5/26 1410 66.0   7.0 32   14 35.3   3.1 13.1   4.3 WSW | 239 25.5   3.5 WSW | 237 0.00 3.4   0.0 64.4   2.6 0.00 46.9   8.1 67.2   7.9 25.5   4.2
Eastlake 2 9/5/26 1410 69.8   4.3 29   10 35.8   3.7 14.3   5.3 SW | 231 24.3   4.3 SW | 236 0.00 3.4   0.0 69.1   0.9 0.00 43.6   14.5 71.7   4.1 27.8   1.9
Lovelock-Colado 2 9/5/26 1410 73.1   1.6 28   3 38.4   1.2 9.2   4.4 W | 266 16.0   7.6 WNW | 282 0.00 43.4 72.7   0.3 0.00 45.0   0.6 73.6   0.6 16.9   1.9
Spanish Springs NW 9/5/26 1410 71.6   3.7 27   7 35.9   2.6 3.6   7.8 WSW | 252 11.8   8.4 WSW | 258 0.00 12.2   0.0 67.7   0.2 0.00 45.8   12.6 72.5   4.0 17.4   3.2
Battle Mountain NW 9/5/26 1410 73.2   2.3 27   3 37.6   0.7 6.3   6.5 ENE | 65 10.9   7.0 NE | 42 0.00 8.5   0.2 72.6   2.2 0.00 47.1   7.4 73.9   1.7 19.0   0.8
Austin 2 9/5/26 1310 72.2   1.5 23   1 32.1   0.6 10.1   0.2 SW | 214 26.2   9.9 SW | 227 0.00 2.7   0.1 78.2   0.6 0.00 37.5   0.1 73.2   1.4 28.9   4.2
Elko-Osino 9/5/26 1410 78.6   3.7 18   4 31.9   2.2 9.7   4.2 SW | 232 16.9   4.5 SSW | 201 0.00 1.4   0.0 74.7   1.0 0.00 39.2   5.0 79.3   3.1 27.4   8.1
Elko-Bill Fishpond 2 9/5/26 1410 73.9   0.3 26   2 36.5   2.5 4.2   1.7 N | 350 11.7   0.9 NNW | 330 0.00 3.4   0.0 67.2   0.8 0.00 41.3   7.2 74.6   0.4 14.5   3.2
Spring Creek SE 2 9/5/26 1410 77.2   1.7 19   0 31.7   1.5 7.0   7.6 SSW | 199 13.0   10.9 SW | 228 0.00 0.2   0.1 66.2   0.4 0.00 41.8   2.5 78.0   2.0 24.7   3.7
Spring Creek NW 9/5/26 1410 77.2   2.7 18   3 30.6   1.7 10.4   1.9 SSW | 204 19.9   3.5 SW | 216 0.00 2.1   0.1 69.0   0.3 0.00 47.8   1.4 78.1   2.5 23.1   0.4
Elko-Moleen 9/5/26 1410 76.4   0.5 23   2 36.1   2.4 7.4   2.4 NW | 316 15.4   2.4 W | 281 0.00 6.2   0.1 74.0   0.4 0.00 41.2   2.5 77.0   0.6 15.8   1.1
Elko-West 9/5/26 1410 77.4   2.0 23   0 36.2   1.9 7.1   0.2 W | 271 14.3   1.0 WSW | 257 0.00 32.8   0.0 65.4   0.1 0.00 39.0   2.6 78.7   2.8 19.9   1.7
Elko-Adobe Creek 9/5/26 1410 67.8   0.1 29   4 34.6   3.3 8.2   3.5 SW | 236 17.5   6.8 WSW | 246 0.00 18.4   0.0 66.6   0.1 0.00 43.8   4.8 69.4   0.5 23.1   1.2
Tuscarora SW 9/5/26 1410 71.3   4.3 25   5 34.0   0.8 9.5   3.8 SW | 217 17.9   2.1 WSW | 249 0.00 6.6   0.1 68.0   1.5 0.00 35.8   6.8 72.0   4.5 32.3   11.0
Elko-Monument Peak 9/5/26 1410 70.9   1.1 26   2 34.2   2.7 9.0   3.6 W | 261 15.8   7.8 WSW | 249 0.00 4.0   0.2 67.7   0.7 0.00 31.4   6.6 72.2   1.4 23.0   0.6
Wild Horse 9/5/26 1410 69.8   3.9 25   5 32.7   1.2 13.7   8.1 S | 186 25.1   14.0 S | 177 0.00 4.5   0.0 63.4   1.2 0.00 33.9   15.2 70.9   4.3 28.1   7.6
Max     103.1 100 60.8 23.9 - 34.6 - 0.00 43.5 96.6 0.00 79.4 103.8 37.1
Avg     71.8 29 35.4 8.7 - 17.7 - 0.00 7.2 70.7 - - - -
Min     54.8 7 11.2 1.7 - 7.0 - 0.00 0.2 32.0 0.00 31.4 57.6 8.4

Latest Observation

114 Stations

Daily Data
as of 9/5/26 2:16 PM PDT
Station Date Daily Max Temp (°F) Daily Min Temp (°F) Daily Max RH (%) Daily Min RH (%) Wind Spd (mph) Wind Dir (°) Daily Max Wind (mph) Max Wind Dir (°) Time of Max Wind Daily Rain (In) Weekly Precip (In) Season Precip (In) Soil Moist (%) Fuel Temp (°F) Fuel Moisture (%) MinBV Day (V)
Hobart Mills 9/4/26 57.4   0.4 43.0   4.7 94   2 60   11 2.5   0.6 SW | 221 16.8   3.7 WSW | 238 0548 0.07 0.10 - 7.5   0.1 49.3   3.0 32   21 12.4   0.1
Prosser Dam 9/4/26 60.0   0.5 43.6   6.5 93   11 52   10 4.0   1.0 SW | 226 20.2   1.7 SW | 232 1506 0.16 0.16 - 5.2   0.0 51.4   3.2 30   21 12.5   0.0
West Incline Village 9/4/26 50.7   1.5 43.5   1.1 98   14 68   37 3.2   0.7 SSW | 208 21.6   2.4 SSW | 192 0142 0.07 0.07 - 11.7   0.0 46.2   3.3 21   12 12.4   0.1
Incline Village (Fairview Blvd) 9/4/26 58.0   3.9 45.6   0.8 93   14 57   23 2.1   0.8 WSW | 248 18.5   3.0 W | 260 1213 0.00 0.00 - 7.6   0.0 51.0   1.5 12   5 12.5   0.0
Incline Village (Diamond Peak) 9/4/26 50.8   0.1 43.8   0.1 93   11 71   33 0.0   5.2 N | 0 12.9   2.2 W | 278 1456 0.01 0.01 - 2.4   0.1 -11.6   0.1 - 12.3   0.1
Incline Village (Mill Creek) 9/4/26 55.5   1.4 46.9   2.5 86   11 62   30 2.9   0.7 WSW | 245 18.9   0.0 WNW | 292 0346 0.00 0.00 - 2.9   0.0 - - 12.4   0.1
Incline Village (Lakeshore Blvd) 9/4/26 57.2   0.4 46.6   3.9 87   3 65   32 4.9   0.6 WSW | 240 17.0   2.5 SW | 224 0142 0.00 0.00 - 23.2   2.1 54.4   0.0 12   1 12.4   0.0
Glenbrook 9/4/26 57.8   0.0 42.6   9.0 80   9 55   17 6.6   2.4 SW | 234 26.3   0.5 WSW | 257 0144 0.00 0.00 - 43.4   0.2 52.5   2.3 16   1 12.5   0.0
Zephyr Cove 9/4/26 60.4   1.6 45.6   2.2 73   8 47   16 1.0   0.0 SE | 139 12.5   0.6 SW | 214 0101 0.00 0.00 - 2.8   0.0 53.5   0.4 9   1 12.6   0.0
Kingsbury Grade 9/4/26 58.0   2.0 41.0   3.2 83   15 51   19 1.8   0.4 W | 277 18.4   1.4 WSW | 246 0124 0.00 0.00 - 2.3   0.0 50.8   3.9 9   1 12.5   0.0
South Daggett Pass (Ridge) 9/4/26 55.0   0.6 41.1   0.5 90   13 55   18 2.0   1.0 WNW | 292 18.4   7.0 W | 271 0300 0.00 0.00 - 2.2   0.0 47.4   1.2 11   2 12.5   0.0
Palomino Valley 9/4/26 70.8   1.3 47.6   4.0 81   29 30   3 6.4   3.6 WSW | 244 34.6   1.4 WSW | 252 1540 0.00 0.00 - 6.6   0.0 61.6   3.0 9   2 12.5   0.0
East Cold Springs 9/4/26 64.0   2.1 49.8   2.1 85   7 39   2 9.2   2.3 WSW | 243 30.8   0.1 W | 264 2105 0.01 0.01 - 1.5   0.0 59.1   1.8 10   4 12.6   0.0
Peavine 9/4/26 60.8   1.3 50.0   1.1 77   3 41   11 16.5   4.1 SW | 229 48.4   1.6 WSW | 252 2010 0.05 0.06 - 4.2   0.1 55.5   1.8 19   13 13.1   0.0
West Verdi Peak 9/4/26 57.9   0.7 46.6   0.6 91   3 54   11 3.3   0.5 S | 169 19.9   4.1 SE | 146 0334 0.22 0.26 - 6.5   0.0 50.6   2.5 43   34 12.5   0.0
West Verdi 9/4/26 63.6   0.6 51.1   2.7 83   7 46   14 6.3   1.5 SW | 220 27.8   8.7 S | 181 1147 0.08 0.09 - 6.1   0.0 57.2   3.1 17   12 12.6   0.0
South Verdi 9/4/26 62.1   0.2 51.5   1.3 83   12 45   20 14.2   6.9 SW | 218 42.8   2.0 SSW | 206 2117 0.03 0.03 - 10.2   0.2 56.5   2.3 15   8 12.6   0.0
Northwest Reno 9/4/26 63.6   1.9 53.3   1.9 75   7 42   10 21.6   2.0 WSW | 255 51.2   0.6 W | 269 2041 0.00 0.00 - 24.5   0.2 -17.8   0.1 - 12.6   0.0
North Lawton 8/27/26 85.2   2.6 66.7   6.0 35   16 18   2 8.9   1.0 SW | 230 25.0   2.4 SW | 236 1526 0.00 0.00 - - - - 12.6   0.0
West Reno (Mogul) 9/4/26 65.0   1.3 52.7   2.3 83   13 42   14 4.4   3.6 WSW | 247 30.8   1.4 SW | 222 1335 0.00 0.00 - 19.5   0.1 60.4   4.1 5   4 12.5   0.0
Caughlin (Hunter Lake Trail) 9/4/26 64.3   1.0 50.6   4.4 83   17 41   10 6.9   3.2 W | 272 36.6   6.2 SW | 234 1903 0.00 0.00 - 16.2   0.1 56.2   5.5 10   3 12.6   0.0
ArrowCreek 9/4/26 65.3   20.9 49.3   51.4 68   2 37   34 9.3   2.4 S | 177 30.7   7.2 SSE | 159 0127 0.00 0.01 - - - - 12.4   1.4
Tracy 9/4/26 71.8   1.3 55.6   2.7 60   13 31   4 9.9   0.6 WSW | 250 35.9   4.2 WNW | 282 1439 0.00 0.00 - 15.6   0.1 66.2   1.3 7   0 12.7   0.0
Virginia Highlands 9/4/26 62.2   1.4 49.5   0.4 69   5 38   3 7.4   1.1 SW | 223 34.9   4.3 W | 261 1417 0.00 0.00 - 7.8   0.1 58.5   0.9 8   1 12.6   0.0
Virginia City 9/4/26 61.9   1.9 50.3   0.5 62   8 38   4 11.1   1.8 SSW | 198 34.8   4.8 S | 179 1500 0.00 0.00 - 4.7   0.0 59.4   0.4 7   1 12.6   0.0
Six Mile Canyon 9/4/26 72.1   1.4 56.2   1.8 52   10 26   1 10.4   1.0 WSW | 244 35.6   0.1 WSW | 257 1602 0.00 0.00 - 12.2   0.1 66.8   1.0 4   1 12.8   0.0
Mt Rose Highway 9/4/26 56.2   0.1 44.9   0.2 86   2 53   24 4.5   1.4 SSW | 197 33.4   1.9 WSW | 238 2034 0.03 0.06 - 7.4   0.0 48.6   4.2 23   14 12.5   0.0
Pleasant Valley 9/4/26 66.4   1.2 46.9   9.3 70   17 41   13 10.9   2.9 SW | 228 30.2   6.7 S | 189 1424 0.00 0.00 - 2.3   0.0 61.1   5.6 9   1 12.5   0.0
New Washoe City 9/4/26 65.6   1.3 50.8   2.0 66   10 38   6 11.4   1.9 SW | 223 33.0   3.5 WSW | 245 1546 0.00 0.00 - 3.4   0.0 59.9   0.8 8   1 12.6   0.0
Franktown Creek 9/4/26 64.9   1.8 53.0   3.1 73   14 44   16 4.0   1.5 SSW | 212 25.5   7.4 S | 174 0149 0.00 0.00 - 7.0   0.0 59.2   3.1 10   2 12.6   0.0
Musgrove Creek 9/4/26 63.3   0.6 51.9   1.1 75   13 43   12 2.2   0.1 W | 272 18.5   4.1 ESE | 111 1239 0.01 0.01 - 10.2   0.0 58.8   1.6 9   1 12.6   0.0
East Carson 11/22/24 63.8   0.3 41.7   4.6 85   21 21   9 14.9   6.0 SW | 224 46.6   12.7 S | 171 1835 0.05 0.05 4.48 2.5   0.0 53.9   0.3 9   0 12.6   0.0
Kings Canyon 9/4/26 63.9   1.8 54.6   0.5 56   6 40   11 5.8   0.8 SSW | 204 26.0   3.5 SW | 230 0959 0.00 0.00 - 4.1   0.0 59.5   0.5 6   1 12.6   0.0
Carson City (Voltaire Canyon) 9/4/26 66.0   3.0 55.4   2.1 56   6 37   10 15.8   0.3 SSW | 212 40.4   0.9 SSW | 201 1613 0.00 0.00 - 2.8   0.0 -11.0   0.0 - 12.6   0.0
Jacks Valley 9/4/26 67.2   0.7 54.3   0.0 55   5 36   9 11.5   0.1 WSW | 256 33.7   5.7 WSW | 248 1621 0.00 0.00 - 4.6   0.0 60.9   2.8 4   1 12.6   0.0
Genoa 9/4/26 68.6   2.4 56.4   1.0 56   5 37   12 1.9   0.3 WSW | 241 14.7   4.3 WSW | 252 2201 0.00 0.00 - 2.3   0.1 61.0   2.4 9   1 12.4   0.0
South Genoa (Walleys Hot Springs) 9/4/26 67.9   2.7 51.2   2.8 63   5 35   11 5.2   1.7 SW | 227 25.0   4.8 SSE | 150 1546 0.00 0.00 - 4.8   0.0 61.6   4.8 7   1 12.5   0.0
SW Gardnerville (HWY 88) 9/4/26 67.0   3.9 49.4   3.3 64   1 38   9 13.5   2.2 SSE | 163 31.9   4.5 S | 183 1042 0.00 0.00 - 2.8   0.0 60.4   0.9 8   0 9.3   0.3
Sheridan 9/4/26 67.8   5.0 49.8   0.7 60   11 36   8 6.3   0.3 SE | 138 24.6   3.6 SSE | 152 1734 0.00 0.00 - 1.1   0.0 61.2   2.4 4   1 12.6   0.0
Ruhenstroth 9/4/26 68.2   1.8 55.3   1.1 53   6 34   13 12.9   1.9 SSW | 198 31.7   4.1 S | 186 0439 0.00 0.00 - 6.8   0.0 63.0   1.5 6   1 12.6   0.0
Double Spring 9/4/26 66.4   0.2 48.0   9.3 66   0 31   0 8.2   1.9 WSW | 251 32.8   5.7 WSW | 257 1419 0.00 0.00 - 25.0   0.0 62.1   4.5 8   0 12.6   0.0
North Topaz Lake 9/4/26 70.8   0.4 55.2   0.7 50   1 29   2 9.0   1.0 SW | 218 30.9   2.0 SSE | 153 1007 0.00 0.00 - 7.7   0.1 66.1   0.3 6   1 12.6   0.0
Wild Oat Mountain 9/4/26 68.3   0.3 52.4   0.4 55   4 28   4 13.6   2.7 SW | 233 42.5   10.8 SW | 234 1541 0.00 0.00 - 5.7   0.0 62.0   0.4 6   1 12.6   0.0
Smith Valley 9/4/26 76.5   0.3 56.4   0.7 50   9 24   3 10.1   1.9 SW | 222 41.2   9.8 WSW | 258 1700 0.00 0.00 - 2.8   0.0 71.4   0.9 7   1 12.6   0.0
Pine Grove Mountain 9/4/26 62.9   0.6 43.2   2.0 73   13 34   5 7.7   1.0 SE | 145 26.6   4.2 N | 7 1457 0.00 0.00 - 6.7   0.1 58.0   0.1 6   2 12.6   0.0
Paradise Hill 9/4/26 66.6   6.0 53.1   2.7 74   22 43   16 11.2   1.3 WNW | 292 36.3   5.7 WNW | 286 1645 0.00 0.00 - 9.8   0.1 64.6   2.7 7   2 12.6   0.0
Winnemucca 9/4/26 68.1   5.8 52.1   2.9 70   14 43   19 5.8   1.5 NW | 309 22.5   2.9 WNW | 294 1619 0.00 0.00 - 5.6   0.0 63.4   3.0 7   1 12.6   0.0
NE Elko 9/4/26 79.0   0.1 44.9   7.3 61   25 20   4 5.2   1.3 NNE | 12 28.4   2.7 WSW | 239 1455 0.00 0.00 - 5.7   0.0 66.2   2.6 4   0 12.6   0.0
North Elko 9/4/26 76.8   0.1 53.7   0.2 57   14 21   4 6.8   1.3 WSW | 258 29.1   2.6 N | 351 2035 0.00 0.00 - 24.6   0.1 66.6   0.8 7   0 12.6   0.0
South Elko 9/4/26 110.0 53.2   0.4 89   10 22   4 4.7   2.6 W | 276 22.2   5.7 WNW | 303 1717 0.00 0.00 - 13.6   0.0 63.5   2.0 6   1 12.6   0.0
Lamoille 9/4/26 77.3   2.7 46.6   6.3 65   21 20   3 6.3   3.8 S | 177 21.9   4.5 WSW | 246 1544 0.00 0.00 - 6.2   0.1 65.6   2.1 6   0 12.8   0.0
Reid Gardner Sub 9/4/26 97.7   0.3 59.8   4.6 38   3 12   1 7.0   1.2 S | 178 35.2   9.2 SSE | 161 1501 0.00 0.00 - 24.9   0.1 85.5   0.7 1   0 12.6   0.0
Corn Creek 9/4/26 91.9   0.5 70.3   1.7 38   11 14   3 15.2   3.2 E | 91 40.0   1.1 E | 87 1101 0.00 0.00 - 3.1   0.0 83.1   1.6 2   1 12.5   0.0
Lucky Strike 9/4/26 78.6   2.4 62.9   0.3 32   6 16   7 11.5   4.0 SSE | 150 38.9   7.7 SSE | 154 1328 0.00 0.00 - 3.1   0.0 72.7   0.4 2   1 12.6   0.0
Lower Angel Peak 9/4/26 75.1   1.1 55.9   2.2 35   6 20   6 5.8   0.5 SE | 141 27.1   4.2 ESE | 121 1349 0.00 0.00 - 3.1   0.0 68.7   1.9 2   0 12.6   0.0
Angel Peak 9/4/26 64.8   0.2 53.3   0.6 38   9 27   12 19.1   10.6 S | 190 47.1   17.8 SW | 216 1927 0.00 0.00 - 2.5   0.1 61.4   0.4 4   1 12.5   0.0
Upper Kyle Canyon 9/4/26 67.7   1.8 56.6   1.1 33   5 25   10 5.9   1.1 ENE | 66 29.1   6.8 ESE | 105 1534 0.00 0.00 - 7.7   0.0 69.1   1.5 4   0 12.7   0.0
Mt Charleston 9/4/26 67.5   1.4 56.2   1.8 32   3 22   9 5.0   1.5 WNW | 293 28.7   1.2 WSW | 257 0230 0.00 0.00 - 13.2   0.1 66.4   0.1 10   0 12.6   0.0
Mid Kyle Canyon 9/4/26 75.2   1.3 59.6   2.9 34   8 19   6 10.6   3.5 SW | 230 35.0   3.0 SSW | 207 0133 0.00 0.00 - 5.8   0.0 73.0   1.9 4   1 12.7   0.0
Blue Diamond 9/4/26 89.7   2.3 70.7   3.8 32   4 13   1 8.6   0.8 W | 271 27.8   2.2 W | 281 0449 0.00 0.00 - 1.2   0.0 - - 12.6   0.0
Artesian Sub 9/4/26 100.2   1.5 78.1   1.2 31   9 11   0 5.5   0.6 SE | 146 19.9   3.4 S | 173 1400 0.00 0.00 - 11.7   0.0 - 0   0 12.6   0.0
North Henderson 9/4/26 99.8   0.6 79.1   1.3 30   7 10   1 7.4   0.0 S | 180 33.4   5.7 S | 172 1254 0.00 0.00 - 10.5   0.0 92.4   0.9 1   0 12.6   0.0
Sandy Valley 9/4/26 90.7   1.3 68.4   0.6 45   10 14   1 6.6   1.0 WSW | 244 24.2   1.7 W | 266 1442 0.00 0.00 - 7.6   0.2 82.0   1.2 4   1 12.6   0.0
Searchlight 9/4/26 88.4   0.3 64.8   0.6 44   13 16   3 8.8   0.1 S | 175 31.0   4.7 S | 171 1137 0.00 0.00 - 5.7   0.1 79.7   0.2 1   0 12.5   0.0
Laughlin 9/4/26 103.4   1.8 78.8   1.4 33   6 9   0 8.3   1.5 S | 191 32.9   6.0 SSE | 150 1326 0.00 0.00 - 4.4   0.0 90.6   1.3 3   0 12.7   0.0
31Mission Hills 9/4/26 94.2   0.5 73.8   0.4 30   9 11   1 9.9   0.2 S | 174 38.5   6.0 S | 184 1516 0.00 0.00 - 6.4   0.2 86.5   0.6 3   0 13.2   0.0
32 Enterprise Sierra Cliffs 9/4/26 91.1   1.3 69.6   3.2 35   9 11   0 9.2   3.1 S | 189 24.1   6.6 W | 268 1707 0.00 0.00 - 1.3   0.0 84.0   0.6 4   0 13.2   0.0
29 Calico Basin 9/4/26 87.6   1.5 68.3   0.6 32   9 12   0 10.0   0.5 SSW | 204 26.7   2.9 SSW | 200 1558 0.00 0.00 - 2.4   0.0 80.7   0.4 3   0 13.2   0.0
28 Indian Springs 9/4/26 92.9   0.8 65.0   3.4 33   12 12   3 8.3   2.7 S | 187 29.9   3.1 WSW | 253 1537 0.00 0.00 - 4.4   0.1 81.1   1.0 3   0 13.2   0.0
30 Jean 9/4/26 91.8   2.1 67.3   1.8 38   9 10   1 9.5   1.4 SSW | 213 29.1   0.1 SW | 219 1531 0.00 0.00 - 5.0   0.1 82.4   1.3 3   0 13.1   0.0
VC Highlands NW 9/4/26 61.6   1.4 48.3   0.5 67   6 39   7 4.7   0.5 SW | 232 27.1   1.9 WSW | 255 1506 0.00 0.00 - 1.5   0.0 55.4   2.5 8   1 13.1   0.0
Glenbrook-Spooner Summit 9/4/26 55.5   1.2 40.6   5.8 82   17 51   18 5.4   2.8 W | 264 23.8   5.8 WSW | 247 0125 0.00 0.00 - 7.7   0.0 52.3   1.6 9   1 13.2   0.0
Hobo Hot Springs 9/4/26 70.0   0.9 46.8   2.8 69   17 33   8 7.1   3.0 SW | 226 27.2   10.8 SW | 215 1733 0.00 0.00 - 1.1   0.0 61.7   2.5 7   1 13.2   0.0
Jack Valley Ranch 2 9/4/26 67.0   0.8 52.2   1.9 56   5 35   11 6.3   0.3 SW | 234 26.3   3.9 WNW | 284 1301 0.00 0.00 - 2.1   0.0 61.8   2.2 6   1 13.2   0.0
Genoa North 2 9/4/26 68.5   1.5 52.7   0.8 56   8 33   11 5.8   0.2 SW | 235 23.7   10.3 S | 177 0217 0.00 0.00 - 0.8   0.0 62.7   1.7 7   1 13.2   0.0
Mottsville 2 9/4/26 68.3   2.9 50.1   0.6 60   13 33   7 4.5   0.5 SSW | 199 28.4   3.7 S | 191 0144 0.00 0.00 - 1.3   0.0 61.8   0.6 8   1 13.2   0.0
Kingsbury Village 3 9/4/26 52.9   2.8 38.2   2.1 86   11 55   23 1.9   0.8 NNW | 329 15.5   1.7 SSE | 159 1642 0.00 0.00 - 3.2   0.0 46.1   2.9 12   2 13.2   0.0
Kingsbury-Benjamin Dr 2 9/4/26 55.6   2.7 41.6   0.2 82   11 50   18 1.7   1.0 W | 263 16.5   8.4 SW | 218 1702 0.00 0.00 - 2.9   0.1 48.8   2.6 10   2 13.2   0.0
Smith Valley-Wellington 9/4/26 75.2   0.5 54.2   3.2 55   14 23   1 9.0   0.3 SW | 229 36.9   5.8 WSW | 249 1650 0.00 0.00 - 3.5   0.0 68.9   0.6 6   1 13.2   0.0
Sheridan South 2 9/4/26 65.8   5.0 52.2   4.9 56   4 37   10 7.8   0.2 SSE | 152 28.1   3.1 S | 178 1448 0.00 0.00 - 0.5   0.0 60.7   3.1 7   1 13.2   0.0
Silver Springs 9/4/26 74.9   1.2 58.9   4.7 48   10 24   2 15.1   0.0 W | 262 42.5   0.0 SW | 236 1521 0.00 0.00 - 4.9   0.0 68.2   0.1 7   1 13.1   0.0
Fernley 9/4/26 74.6   0.9 54.0   0.0 67   25 24   2 10.8   1.3 WNW | 296 36.6   3.9 WNW | 302 1531 0.00 0.00 - 3.2   0.0 67.5   0.4 7   1 13.1   0.0
Spanish Springs 9/4/26 70.2   0.1 50.3   7.1 64   10 31   4 4.7   2.3 WSW | 246 26.2   0.7 WNW | 291 1612 0.00 0.00 - 10.1   0.1 65.1   1.7 8   1 13.2   0.0
Suttcliffe South 2 9/4/26 72.3   1.2 50.9   5.6 89   24 27   3 7.9   7.6 NW | 316 35.0   7.6 W | 274 1518 0.00 0.00 - 4.1   0.1 60.8   3.9 12   5 13.1   0.0
Lemmon Valley North 9/4/26 65.5   1.1 52.2   3.3 84   8 34   0 10.1   0.9 SSW | 213 29.7   2.7 WSW | 238 1446 0.02 0.02 - 2.0   0.0 59.2   1.2 13   6 13.2   0.0
Lemmon Valley NW 3 9/4/26 66.0   2.7 51.7   1.2 77   12 34   1 9.8   0.9 WSW | 258 31.3   0.9 SSW | 194 1226 0.00 0.00 - 1.2   0.0 62.0   0.4 8   2 13.2   0.0
VC Highlands North 9/4/26 62.6   0.9 45.7   4.5 73   14 37   5 7.6   0.0 SW | 220 27.4   2.6 SSW | 203 1619 0.00 0.00 - 4.6   0.0 58.3   1.8 8   1 13.2   0.0
Upper Voltaire Cyn 9/4/26 60.8   3.3 51.2   2.3 60   8 40   13 11.7   2.0 SSW | 201 35.9   7.6 WSW | 241 1423 0.00 0.00 - 1.1   0.0 56.5   3.8 9   1 13.2   0.0
Yerington NW 9/4/26 75.3   0.1 54.4   4.9 60   6 26   6 8.8   3.7 W | 279 32.9   8.8 W | 264 1649 0.00 0.01 - 7.2   0.0 66.2   0.5 9   1 13.2   0.0
Spanish Springs SW 9/4/26 69.0   1.4 49.6   6.8 62   3 31   4 8.2   1.2 WSW | 245 27.0   8.2 SW | 218 1336 0.00 0.00 - 1.4   0.0 63.2   1.8 8   1 13.2   0.0
Cosgrave 2 8/26/26 94.1   3.1 59.4   0.6 40   15 11   2 5.7   1.4 SSW | 205 26.1   5.0 WSW | 249 1345 0.00 0.00 - 4.0   0.1 82.4   4.3 5   1 13.2   0.0
Winnemucca-Grass Valley 2 9/4/26 69.3   5.1 48.6   0.4 81   18 39   18 7.2   0.3 NNW | 346 26.6   5.2 N | 6 1538 0.00 0.00 - 7.7   0.0 61.4   2.7 9   1 13.1   0.0
Winnemucca-Dutch Flat Rd 9/4/26 67.9   6.7 50.8   3.4 72   22 37   16 6.0   3.5 NW | 308 29.4   1.4 NW | 309 1813 0.00 0.01 - 6.2   0.0 63.5   2.0 7   2 13.2   0.0
Paradise Valley 2 9/4/26 70.5   2.0 48.4   3.9 70   10 31   5 5.3   0.3 S | 183 27.4   3.2 WSW | 246 1454 0.00 0.08 - 12.4   0.0 64.9   2.4 7   1 13.2   0.0
Golconda 2 9/4/26 69.6   5.5 50.8   2.3 72   24 37   16 9.2   1.5 NNW | 330 29.6   3.8 NNW | 340 1640 0.00 0.00 - 1.8   0.0 62.6   4.3 8   1 13.1   0.0
Battle Mountain - South 9/4/26 77.2   1.4 50.9   1.2 62   15 22   6 7.3   0.2 NNW | 329 30.6   3.5 NNW | 329 1751 0.00 0.00 - 9.2   0.0 69.3   1.6 5   1 13.1   0.0
Geiger Summit 9/4/26 59.6   1.3 47.2   0.2 100   0 100   0 8.8   0.2 SSW | 208 30.4   4.7 S | 183 1527 0.00 0.00 - 6.1   0.1 55.6   0.2 8   1 13.2   0.0
Combs Canyon 3 9/4/26 68.4   1.3 54.0   0.2 55   10 33   5 8.6   0.8 SW | 221 27.0   2.0 SW | 216 1029 0.00 0.00 - 1.0   0.0 65.2   1.6 7   0 13.2   0.0
Clear Creek 9/4/26 61.5   3.4 50.8   2.5 61   11 39   13 8.1   0.7 SSW | 192 29.7   1.5 SSE | 151 0200 0.00 0.00 - 3.4   0.0 57.1   2.8 9   1 13.1   0.0
Eastlake 2 9/4/26 67.6   0.6 56.8   2.2 54   2 34   6 9.5   1.5 S | 175 29.2   0.1 SE | 138 1458 0.00 0.00 - 3.4   0.0 63.9   1.8 7   0 13.3   0.0
Lovelock-Colado 2 9/4/26 74.3   3.1 45.5   5.8 68   3 28   8 7.5   1.0 NNE | 24 20.9   4.1 N | 350 1604 0.00 0.00 - - 64.4   2.3 7   1 13.1   0.0
Spanish Springs NW 9/4/26 70.2   1.7 52.9   4.3 63   8 30   2 5.7   1.6 W | 272 25.7   5.2 SSW | 205 1410 0.00 0.00 - 12.2   0.1 62.4   2.0 7   1 13.1   0.0
Battle Mountain NW 9/4/26 72.8   5.6 52.6   0.4 59   13 27   10 6.2   1.6 NNW | 329 26.1   8.1 WNW | 297 1843 0.00 0.00 - 8.7   0.0 64.8   4.4 5   1 13.2   0.0
Austin 2 9/4/26 74.2   0.8 37.6   0.8 74   19 17   1 5.8   0.1 SW | 235 24.7   12.4 SE | 138 1110 0.00 0.11 - 2.5   0.1 60.9   0.5 6   1 13.2   0.0
Elko-Osino 9/4/26 79.3   0.7 44.2   7.9 65   24 18   3 5.5   1.5 W | 272 23.2   4.1 WSW | 254 1516 0.00 0.00 - 1.5   0.0 67.2   1.4 7   0 13.2   0.0
Elko-Bill Fishpond 2 9/4/26 78.4   1.5 47.8   3.9 64   25 19   4 4.9   1.9 S | 187 17.9   9.6 NW | 318 1441 0.00 0.00 - 3.5   0.0 64.5   2.9 6   0 13.2   0.0
Spring Creek SE 2 9/4/26 78.3   1.2 44.2   7.1 64   20 17   3 6.5   1.0 SE | 133 28.4   1.0 SW | 214 1223 0.00 0.00 - 0.2   0.0 63.9   1.4 6   0 13.2   0.0
Spring Creek NW 9/4/26 78.1   1.4 49.2   2.6 58   17 18   2 4.9   2.4 W | 278 23.5   1.0 SSW | 194 1319 0.00 0.00 - 2.2   0.0 65.0   3.0 5   1 13.2   0.0
Elko-Moleen 9/4/26 79.4   0.1 43.6   3.6 70   25 18   3 4.8   1.1 WNW | 296 21.9   3.6 NNW | 338 2006 0.00 0.00 - 6.2   0.0 66.6   1.0 7   0 13.2   0.0
Elko-West 9/4/26 80.3   0.9 41.6   3.9 74   25 18   3 4.5   1.5 W | 278 27.1   2.6 WSW | 241 1558 0.00 0.00 - 33.4   0.2 63.9   1.8 6   0 13.1   0.0
Elko-Adobe Creek 9/4/26 72.4   1.9 46.2   2.2 71   25 22   3 7.6   1.5 W | 269 26.0   8.4 NNE | 14 2038 0.00 0.00 - 18.5   0.0 63.1   0.2 7   1 13.2   0.0
Tuscarora SW 9/4/26 70.0   2.7 42.7   4.5 73   13 28   8 7.0   0.9 N | 352 25.2   5.8 NNW | 332 1742 0.00 0.00 - 6.8   0.0 57.6   3.9 7   1 13.2   0.0
Elko-Monument Peak 9/4/26 74.3   1.9 38.0   6.2 71   28 21   2 6.9   0.0 SSW | 194 26.4   3.0 NNE | 17 1943 0.00 0.00 - 4.1   0.3 60.1   1.5 5   1 13.2   0.0
Wild Horse 9/4/26 67.7   1.9 46.6   1.1 74   21 27   6 8.0   0.9 N | 11 26.0   3.7 N | 350 1733 0.00 0.00 - 4.5   0.0 57.6   3.6 6   1 13.1   0.0
Max   110.0 79.1 100 100 21.6 - 51.2 - - 0.22 - - 43.4 92.4 43 13.3
Avg   - - - - 7.6 - - - - - - - 7.0 61.1 8 -
Min   50.7 37.6 30 9 0.0 - 12.5 - - 0.00 - - 0.2 -17.8 0 9.3

Fosberg 6Hr Max

Map

Hourly Data

Fosberg 6Hr Max

Map

Hourly Data